This is the latest recevied weather packets stored in our database for station/object WS2Z. If no packets are shown the sender has not sent any weather packets the latest 10 day(s).
| Time | Temp. | Humidity | Pressure | Rain* | Wind** | Luminosity | Snow |
|---|---|---|---|---|---|---|---|
| 1777589545 | 27.78° C | 60% | 1011.9 hPa | 0 mm | - | 85 W/m² | - |
| 1777589244 | 27.78° C | 59% | 1011.9 hPa | 0 mm | - | 104 W/m² | - |
| 1777588941 | 27.78° C | 59% | 1011.7 hPa | 0 mm | - | 113 W/m² | - |
| 1777588637 | 27.78° C | 58% | 1011.9 hPa | 0 mm | - | 82 W/m² | - |
| 1777588332 | 27.78° C | 59% | 1012 hPa | 0 mm | - | 119 W/m² | - |
| 1777588029 | 27.78° C | 58% | 1012 hPa | 0 mm | - | 158 W/m² | - |
| 1777587724 | 27.78° C | 59% | 1012 hPa | 0 mm | - | 168 W/m² | - |
| 1777587424 | 27.78° C | 58% | 1012 hPa | 0 mm | - | 186 W/m² | - |
| 1777587121 | 27.78° C | 60% | 1012 hPa | 0 mm | - | 205 W/m² | - |
| 1777586816 | 28.33° C | 58% | 1012.1 hPa | 0 mm | - | 220 W/m² | - |
| 1777586512 | 28.33° C | 59% | 1012.1 hPa | 0 mm | - | 238 W/m² | - |
| 1777586207 | 27.78° C | 60% | 1012 hPa | 0 mm | - | 257 W/m² | - |
| 1777585906 | 28.33° C | 58% | 1012 hPa | 0 mm | - | 271 W/m² | - |
| 1777585600 | 28.33° C | 58% | 1011.8 hPa | 0 mm | - | 291 W/m² | - |
| 1777585296 | 28.33° C | 58% | 1011.8 hPa | 0 mm | - | 308 W/m² | - |
| 1777584996 | 28.89° C | 54% | 1011.8 hPa | 0 mm | - | 329 W/m² | - |
| 1777584693 | 28.89° C | 55% | 1011.7 hPa | 0 mm | - | 342 W/m² | - |
| 1777584390 | 28.89° C | 55% | 1011.7 hPa | 0 mm | - | 357 W/m² | - |
| 1777584087 | 28.33° C | 57% | 1011.7 hPa | 0 mm | - | 356 W/m² | - |
| 1777583787 | 28.89° C | 55% | 1011.5 hPa | 0 mm | - | 396 W/m² | - |
| 1777583487 | 29.44° C | 50% | 1011.4 hPa | 0 mm | - | 386 W/m² | - |
| 1777583181 | 28.89° C | 55% | 1011.5 hPa | 0 mm | - | 432 W/m² | - |
| 1777582877 | 28.89° C | 56% | 1011.6 hPa | 0 mm | - | 434 W/m² | - |
| 1777582574 | 28.89° C | 54% | 1011.6 hPa | 0 mm | - | 445 W/m² | - |
| 1777582270 | 28.89° C | 53% | 1011.7 hPa | 0 mm | - | 484 W/m² | - |
* Rain latest hour (hover to see other rain measurements)
** Current wind speed in m/s (hover to see current wind gust speed)